sensor_id;sensor_type;location;lat;lon;timestamp;P1;durP1;ratioP1;P2;durP2;ratioP2
15055;SDS011;7626;42.674;23.284;2023-05-18T00:01:02;1.70;;;1.30;;
15055;SDS011;7626;42.674;23.284;2023-05-18T00:03:30;1.23;;;1.13;;
15055;SDS011;7626;42.674;23.284;2023-05-18T00:05:57;2.07;;;1.40;;
15055;SDS011;7626;42.674;23.284;2023-05-18T00:08:28;1.90;;;1.43;;
15055;SDS011;7626;42.674;23.284;2023-05-18T00:10:55;1.30;;;1.20;;
15055;SDS011;7626;42.674;23.284;2023-05-18T00:13:22;1.47;;;1.23;;
15055;SDS011;7626;42.674;23.284;2023-05-18T00:15:49;1.20;;;1.10;;
15055;SDS011;7626;42.674;23.284;2023-05-18T00:18:15;1.67;;;1.10;;
15055;SDS011;7626;42.674;23.284;2023-05-18T00:20:43;1.57;;;1.20;;
15055;SDS011;7626;42.674;23.284;2023-05-18T00:23:10;1.20;;;0.90;;
15055;SDS011;7626;42.674;23.284;2023-05-18T00:25:40;0.90;;;0.90;;
15055;SDS011;7626;42.674;23.284;2023-05-18T00:28:07;1.60;;;0.80;;
15055;SDS011;7626;42.674;23.284;2023-05-18T00:30:35;1.00;;;0.90;;
15055;SDS011;7626;42.674;23.284;2023-05-18T00:33:02;1.07;;;0.80;;
15055;SDS011;7626;42.674;23.284;2023-05-18T00:35:29;0.97;;;0.80;;
15055;SDS011;7626;42.674;23.284;2023-05-18T00:37:57;2.23;;;1.00;;
15055;SDS011;7626;42.674;23.284;2023-05-18T00:40:24;0.80;;;0.80;;
15055;SDS011;7626;42.674;23.284;2023-05-18T00:42:53;1.07;;;0.97;;
15055;SDS011;7626;42.674;23.284;2023-05-18T00:45:19;1.07;;;0.97;;
15055;SDS011;7626;42.674;23.284;2023-05-18T00:47:46;0.83;;;0.80;;
15055;SDS011;7626;42.674;23.284;2023-05-18T00:50:13;5.80;;;0.80;;
15055;SDS011;7626;42.674;23.284;2023-05-18T00:52:40;1.43;;;0.73;;
15055;SDS011;7626;42.674;23.284;2023-05-18T00:55:10;0.80;;;0.80;;
15055;SDS011;7626;42.674;23.284;2023-05-18T00:57:38;1.13;;;0.80;;
15055;SDS011;7626;42.674;23.284;2023-05-18T01:00:07;0.87;;;0.70;;
15055;SDS011;7626;42.674;23.284;2023-05-18T01:02:37;1.10;;;1.00;;
15055;SDS011;7626;42.674;23.284;2023-05-18T01:05:06;1.10;;;1.00;;
15055;SDS011;7626;42.674;23.284;2023-05-18T01:07:35;1.80;;;1.00;;
15055;SDS011;7626;42.674;23.284;2023-05-18T01:10:03;1.60;;;1.10;;
15055;SDS011;7626;42.674;23.284;2023-05-18T01:12:34;1.13;;;0.90;;
15055;SDS011;7626;42.674;23.284;2023-05-18T01:15:07;1.53;;;0.90;;
15055;SDS011;7626;42.674;23.284;2023-05-18T01:17:38;1.80;;;0.90;;
15055;SDS011;7626;42.674;23.284;2023-05-18T01:20:14;0.90;;;0.90;;
15055;SDS011;7626;42.674;23.284;2023-05-18T01:28:53;0.83;;;0.83;;
15055;SDS011;7626;42.674;23.284;2023-05-18T01:31:22;1.20;;;0.90;;
15055;SDS011;7626;42.674;23.284;2023-05-18T01:33:49;1.00;;;0.90;;
15055;SDS011;7626;42.674;23.284;2023-05-18T01:36:15;2.43;;;1.00;;
15055;SDS011;7626;42.674;23.284;2023-05-18T01:38:42;0.90;;;0.90;;
15055;SDS011;7626;42.674;23.284;2023-05-18T01:41:11;3.70;;;1.20;;
15055;SDS011;7626;42.674;23.284;2023-05-18T01:43:46;0.87;;;0.80;;
15055;SDS011;7626;42.674;23.284;2023-05-18T01:46:20;1.20;;;0.93;;
15055;SDS011;7626;42.674;23.284;2023-05-18T01:48:55;1.37;;;1.00;;
15055;SDS011;7626;42.674;23.284;2023-05-18T01:51:28;0.80;;;0.80;;
15055;SDS011;7626;42.674;23.284;2023-05-18T01:54:02;1.80;;;1.00;;
15055;SDS011;7626;42.674;23.284;2023-05-18T01:56:32;1.33;;;0.93;;
15055;SDS011;7626;42.674;23.284;2023-05-18T01:59:01;1.30;;;1.20;;
15055;SDS011;7626;42.674;23.284;2023-05-18T02:01:28;1.67;;;1.23;;
15055;SDS011;7626;42.674;23.284;2023-05-18T02:03:55;1.20;;;1.10;;
15055;SDS011;7626;42.674;23.284;2023-05-18T02:06:22;1.23;;;1.13;;
15055;SDS011;7626;42.674;23.284;2023-05-18T02:08:49;1.20;;;1.10;;
15055;SDS011;7626;42.674;23.284;2023-05-18T02:11:16;1.00;;;1.00;;
15055;SDS011;7626;42.674;23.284;2023-05-18T02:13:43;1.20;;;1.10;;
15055;SDS011;7626;42.674;23.284;2023-05-18T02:16:11;1.93;;;1.10;;
15055;SDS011;7626;42.674;23.284;2023-05-18T02:18:38;1.30;;;1.10;;
15055;SDS011;7626;42.674;23.284;2023-05-18T02:21:05;1.13;;;1.03;;
15055;SDS011;7626;42.674;23.284;2023-05-18T02:23:33;1.17;;;1.03;;
15055;SDS011;7626;42.674;23.284;2023-05-18T02:26:00;1.47;;;1.23;;
15055;SDS011;7626;42.674;23.284;2023-05-18T02:28:27;2.20;;;1.30;;
15055;SDS011;7626;42.674;23.284;2023-05-18T02:30:53;1.50;;;1.30;;
15055;SDS011;7626;42.674;23.284;2023-05-18T02:33:21;1.60;;;1.50;;
15055;SDS011;7626;42.674;23.284;2023-05-18T02:35:50;1.70;;;1.40;;
15055;SDS011;7626;42.674;23.284;2023-05-18T02:38:17;1.93;;;1.40;;
15055;SDS011;7626;42.674;23.284;2023-05-18T02:40:45;1.63;;;1.53;;
15055;SDS011;7626;42.674;23.284;2023-05-18T02:43:12;1.90;;;1.40;;
15055;SDS011;7626;42.674;23.284;2023-05-18T02:45:38;2.27;;;1.53;;
15055;SDS011;7626;42.674;23.284;2023-05-18T02:48:05;1.90;;;1.50;;
15055;SDS011;7626;42.674;23.284;2023-05-18T02:50:33;2.30;;;1.40;;
15055;SDS011;7626;42.674;23.284;2023-05-18T02:53:00;2.57;;;1.53;;
15055;SDS011;7626;42.674;23.284;2023-05-18T02:55:27;1.90;;;1.67;;
15055;SDS011;7626;42.674;23.284;2023-05-18T02:57:54;2.60;;;1.70;;
15055;SDS011;7626;42.674;23.284;2023-05-18T03:00:21;1.80;;;1.60;;
15055;SDS011;7626;42.674;23.284;2023-05-18T03:02:48;1.93;;;1.77;;
15055;SDS011;7626;42.674;23.284;2023-05-18T03:05:15;6.87;;;6.17;;
15055;SDS011;7626;42.674;23.284;2023-05-18T03:07:43;19.20;;;16.50;;
15055;SDS011;7626;42.674;23.284;2023-05-18T03:10:14;14.13;;;12.63;;
15055;SDS011;7626;42.674;23.284;2023-05-18T03:12:41;10.37;;;8.83;;
15055;SDS011;7626;42.674;23.284;2023-05-18T03:15:09;14.10;;;12.60;;
15055;SDS011;7626;42.674;23.284;2023-05-18T03:17:38;10.30;;;9.20;;
15055;SDS011;7626;42.674;23.284;2023-05-18T03:20:05;7.67;;;6.47;;
15055;SDS011;7626;42.674;23.284;2023-05-18T03:22:34;5.47;;;4.40;;
15055;SDS011;7626;42.674;23.284;2023-05-18T03:25:03;4.77;;;4.30;;
15055;SDS011;7626;42.674;23.284;2023-05-18T03:27:30;3.80;;;3.23;;
15055;SDS011;7626;42.674;23.284;2023-05-18T03:29:56;8.60;;;7.70;;
15055;SDS011;7626;42.674;23.284;2023-05-18T03:32:23;4.83;;;4.10;;
15055;SDS011;7626;42.674;23.284;2023-05-18T03:34:52;4.90;;;4.40;;
15055;SDS011;7626;42.674;23.284;2023-05-18T03:37:19;5.37;;;4.03;;
15055;SDS011;7626;42.674;23.284;2023-05-18T03:39:46;3.60;;;3.13;;
15055;SDS011;7626;42.674;23.284;2023-05-18T03:42:14;8.03;;;7.23;;
15055;SDS011;7626;42.674;23.284;2023-05-18T03:44:41;7.23;;;5.57;;
15055;SDS011;7626;42.674;23.284;2023-05-18T03:47:07;6.00;;;5.40;;
15055;SDS011;7626;42.674;23.284;2023-05-18T03:49:35;5.27;;;4.77;;
15055;SDS011;7626;42.674;23.284;2023-05-18T03:52:02;4.40;;;4.00;;
15055;SDS011;7626;42.674;23.284;2023-05-18T03:54:29;4.93;;;3.60;;
15055;SDS011;7626;42.674;23.284;2023-05-18T03:56:56;3.30;;;2.97;;
15055;SDS011;7626;42.674;23.284;2023-05-18T03:59:25;3.20;;;2.90;;
15055;SDS011;7626;42.674;23.284;2023-05-18T04:01:51;3.10;;;2.80;;
15055;SDS011;7626;42.674;23.284;2023-05-18T04:04:18;4.67;;;2.77;;
15055;SDS011;7626;42.674;23.284;2023-05-18T04:06:47;10.93;;;9.47;;
15055;SDS011;7626;42.674;23.284;2023-05-18T04:09:15;15.30;;;13.17;;
15055;SDS011;7626;42.674;23.284;2023-05-18T04:11:43;12.00;;;10.73;;
15055;SDS011;7626;42.674;23.284;2023-05-18T04:14:10;8.17;;;7.27;;
15055;SDS011;7626;42.674;23.284;2023-05-18T04:16:39;5.73;;;5.20;;
15055;SDS011;7626;42.674;23.284;2023-05-18T04:19:07;5.20;;;4.60;;
15055;SDS011;7626;42.674;23.284;2023-05-18T04:21:34;4.60;;;4.10;;
15055;SDS011;7626;42.674;23.284;2023-05-18T04:24:01;4.43;;;4.03;;
15055;SDS011;7626;42.674;23.284;2023-05-18T04:26:29;4.77;;;4.33;;
15055;SDS011;7626;42.674;23.284;2023-05-18T04:28:56;5.30;;;4.80;;
15055;SDS011;7626;42.674;23.284;2023-05-18T04:31:24;4.20;;;3.80;;
15055;SDS011;7626;42.674;23.284;2023-05-18T04:33:54;3.47;;;3.17;;
15055;SDS011;7626;42.674;23.284;2023-05-18T04:36:22;4.27;;;3.80;;
15055;SDS011;7626;42.674;23.284;2023-05-18T04:38:50;5.23;;;3.30;;
15055;SDS011;7626;42.674;23.284;2023-05-18T04:41:17;4.50;;;3.20;;
15055;SDS011;7626;42.674;23.284;2023-05-18T04:43:46;6.80;;;6.20;;
15055;SDS011;7626;42.674;23.284;2023-05-18T04:46:14;4.37;;;3.97;;
15055;SDS011;7626;42.674;23.284;2023-05-18T04:48:42;4.13;;;3.50;;
15055;SDS011;7626;42.674;23.284;2023-05-18T04:51:10;3.60;;;3.30;;
15055;SDS011;7626;42.674;23.284;2023-05-18T04:53:37;3.40;;;3.10;;
15055;SDS011;7626;42.674;23.284;2023-05-18T04:56:04;3.97;;;3.50;;
15055;SDS011;7626;42.674;23.284;2023-05-18T04:58:33;7.60;;;3.40;;
15055;SDS011;7626;42.674;23.284;2023-05-18T05:01:00;6.27;;;3.40;;
15055;SDS011;7626;42.674;23.284;2023-05-18T05:03:27;8.87;;;3.50;;
15055;SDS011;7626;42.674;23.284;2023-05-18T05:05:53;5.80;;;3.20;;
15055;SDS011;7626;42.674;23.284;2023-05-18T05:08:21;4.43;;;3.80;;
15055;SDS011;7626;42.674;23.284;2023-05-18T05:10:48;4.10;;;3.67;;
15055;SDS011;7626;42.674;23.284;2023-05-18T05:13:15;4.43;;;4.03;;
15055;SDS011;7626;42.674;23.284;2023-05-18T05:15:42;4.07;;;3.73;;
15055;SDS011;7626;42.674;23.284;2023-05-18T05:18:08;3.87;;;3.03;;
15055;SDS011;7626;42.674;23.284;2023-05-18T05:20:35;4.10;;;3.50;;
15055;SDS011;7626;42.674;23.284;2023-05-18T05:23:02;3.53;;;3.23;;
15055;SDS011;7626;42.674;23.284;2023-05-18T05:25:30;4.10;;;3.80;;
15055;SDS011;7626;42.674;23.284;2023-05-18T05:27:57;3.83;;;3.53;;
15055;SDS011;7626;42.674;23.284;2023-05-18T05:30:23;3.67;;;3.37;;
15055;SDS011;7626;42.674;23.284;2023-05-18T05:32:50;4.43;;;3.60;;
15055;SDS011;7626;42.674;23.284;2023-05-18T05:35:17;3.67;;;3.20;;
15055;SDS011;7626;42.674;23.284;2023-05-18T05:37:44;3.63;;;3.33;;
15055;SDS011;7626;42.674;23.284;2023-05-18T05:40:11;3.80;;;3.50;;
15055;SDS011;7626;42.674;23.284;2023-05-18T05:42:39;4.00;;;3.70;;
15055;SDS011;7626;42.674;23.284;2023-05-18T05:45:08;3.83;;;3.53;;
15055;SDS011;7626;42.674;23.284;2023-05-18T05:47:35;4.23;;;3.93;;
15055;SDS011;7626;42.674;23.284;2023-05-18T05:50:02;4.37;;;3.97;;
15055;SDS011;7626;42.674;23.284;2023-05-18T05:52:29;4.10;;;3.80;;
15055;SDS011;7626;42.674;23.284;2023-05-18T05:54:56;4.37;;;3.60;;
15055;SDS011;7626;42.674;23.284;2023-05-18T05:57:23;4.37;;;3.97;;
15055;SDS011;7626;42.674;23.284;2023-05-18T05:59:51;6.07;;;3.97;;
15055;SDS011;7626;42.674;23.284;2023-05-18T06:02:18;5.10;;;4.53;;
15055;SDS011;7626;42.674;23.284;2023-05-18T06:04:45;5.93;;;5.27;;
15055;SDS011;7626;42.674;23.284;2023-05-18T06:07:12;5.07;;;4.57;;
15055;SDS011;7626;42.674;23.284;2023-05-18T06:09:39;5.50;;;5.00;;
15055;SDS011;7626;42.674;23.284;2023-05-18T06:12:06;5.40;;;4.90;;
15055;SDS011;7626;42.674;23.284;2023-05-18T06:14:33;5.57;;;5.07;;
15055;SDS011;7626;42.674;23.284;2023-05-18T06:17:01;5.07;;;4.67;;
15055;SDS011;7626;42.674;23.284;2023-05-18T06:19:28;5.50;;;4.33;;
15055;SDS011;7626;42.674;23.284;2023-05-18T06:21:55;4.83;;;4.43;;
15055;SDS011;7626;42.674;23.284;2023-05-18T06:24:22;5.60;;;4.53;;
15055;SDS011;7626;42.674;23.284;2023-05-18T06:26:49;5.23;;;4.23;;
15055;SDS011;7626;42.674;23.284;2023-05-18T06:29:16;4.33;;;3.93;;
15055;SDS011;7626;42.674;23.284;2023-05-18T06:31:42;4.80;;;3.97;;
15055;SDS011;7626;42.674;23.284;2023-05-18T06:34:11;5.30;;;4.80;;
15055;SDS011;7626;42.674;23.284;2023-05-18T06:36:37;4.40;;;4.00;;
15055;SDS011;7626;42.674;23.284;2023-05-18T06:39:05;5.07;;;4.57;;
15055;SDS011;7626;42.674;23.284;2023-05-18T06:41:32;4.87;;;4.17;;
15055;SDS011;7626;42.674;23.284;2023-05-18T06:43:59;4.80;;;4.40;;
15055;SDS011;7626;42.674;23.284;2023-05-18T06:46:26;4.53;;;4.13;;
15055;SDS011;7626;42.674;23.284;2023-05-18T06:48:53;5.03;;;4.60;;
15055;SDS011;7626;42.674;23.284;2023-05-18T06:51:21;4.50;;;4.10;;
15055;SDS011;7626;42.674;23.284;2023-05-18T06:53:48;4.10;;;3.80;;
15055;SDS011;7626;42.674;23.284;2023-05-18T06:56:15;4.70;;;4.30;;
15055;SDS011;7626;42.674;23.284;2023-05-18T06:58:43;4.73;;;4.23;;
15055;SDS011;7626;42.674;23.284;2023-05-18T07:01:09;4.70;;;4.20;;
15055;SDS011;7626;42.674;23.284;2023-05-18T07:03:36;4.97;;;4.40;;
15055;SDS011;7626;42.674;23.284;2023-05-18T07:06:03;4.60;;;4.20;;
15055;SDS011;7626;42.674;23.284;2023-05-18T07:08:32;5.10;;;4.60;;
15055;SDS011;7626;42.674;23.284;2023-05-18T07:11:01;6.87;;;4.70;;
15055;SDS011;7626;42.674;23.284;2023-05-18T07:13:28;4.60;;;4.20;;
15055;SDS011;7626;42.674;23.284;2023-05-18T07:15:55;5.53;;;4.63;;
15055;SDS011;7626;42.674;23.284;2023-05-18T07:18:22;4.77;;;4.27;;
15055;SDS011;7626;42.674;23.284;2023-05-18T07:20:49;5.20;;;4.70;;
15055;SDS011;7626;42.674;23.284;2023-05-18T07:23:15;4.80;;;4.40;;
15055;SDS011;7626;42.674;23.284;2023-05-18T07:25:43;6.20;;;4.87;;
15055;SDS011;7626;42.674;23.284;2023-05-18T07:28:10;5.17;;;4.67;;
15055;SDS011;7626;42.674;23.284;2023-05-18T07:30:37;6.30;;;5.70;;
15055;SDS011;7626;42.674;23.284;2023-05-18T07:33:04;9.27;;;7.73;;
15055;SDS011;7626;42.674;23.284;2023-05-18T07:35:31;9.10;;;8.20;;
15055;SDS011;7626;42.674;23.284;2023-05-18T07:37:57;9.63;;;8.63;;
15055;SDS011;7626;42.674;23.284;2023-05-18T07:40:24;9.27;;;8.37;;
15055;SDS011;7626;42.674;23.284;2023-05-18T07:42:52;10.50;;;8.57;;
15055;SDS011;7626;42.674;23.284;2023-05-18T07:45:19;9.10;;;8.13;;
15055;SDS011;7626;42.674;23.284;2023-05-18T07:47:47;10.27;;;9.17;;
15055;SDS011;7626;42.674;23.284;2023-05-18T07:50:14;9.10;;;8.20;;
15055;SDS011;7626;42.674;23.284;2023-05-18T07:52:41;8.73;;;7.83;;
15055;SDS011;7626;42.674;23.284;2023-05-18T07:55:08;9.80;;;8.70;;
15055;SDS011;7626;42.674;23.284;2023-05-18T07:57:38;9.37;;;8.57;;
15055;SDS011;7626;42.674;23.284;2023-05-18T08:00:07;9.67;;;8.77;;
15055;SDS011;7626;42.674;23.284;2023-05-18T08:02:35;9.50;;;8.60;;
15055;SDS011;7626;42.674;23.284;2023-05-18T08:05:02;9.93;;;9.03;;
15055;SDS011;7626;42.674;23.284;2023-05-18T08:07:30;9.23;;;8.33;;
15055;SDS011;7626;42.674;23.284;2023-05-18T08:09:57;9.53;;;8.57;;
15055;SDS011;7626;42.674;23.284;2023-05-18T08:12:24;9.87;;;8.87;;
15055;SDS011;7626;42.674;23.284;2023-05-18T08:14:51;10.07;;;8.63;;
15055;SDS011;7626;42.674;23.284;2023-05-18T08:17:19;9.93;;;9.00;;
15055;SDS011;7626;42.674;23.284;2023-05-18T08:19:46;10.07;;;9.07;;
15055;SDS011;7626;42.674;23.284;2023-05-18T08:22:12;9.97;;;9.03;;
15055;SDS011;7626;42.674;23.284;2023-05-18T08:24:39;11.97;;;9.17;;
15055;SDS011;7626;42.674;23.284;2023-05-18T08:27:06;9.97;;;8.97;;
15055;SDS011;7626;42.674;23.284;2023-05-18T08:29:35;9.37;;;8.50;;
15055;SDS011;7626;42.674;23.284;2023-05-18T08:32:02;9.73;;;8.60;;
15055;SDS011;7626;42.674;23.284;2023-05-18T08:34:32;9.97;;;8.97;;
15055;SDS011;7626;42.674;23.284;2023-05-18T08:36:58;10.77;;;9.33;;
15055;SDS011;7626;42.674;23.284;2023-05-18T08:39:25;11.00;;;9.77;;
15055;SDS011;7626;42.674;23.284;2023-05-18T08:41:56;9.80;;;8.73;;
15055;SDS011;7626;42.674;23.284;2023-05-18T08:44:28;9.73;;;8.73;;
15055;SDS011;7626;42.674;23.284;2023-05-18T08:46:59;9.67;;;8.67;;
15055;SDS011;7626;42.674;23.284;2023-05-18T08:49:26;11.87;;;8.83;;
15055;SDS011;7626;42.674;23.284;2023-05-18T08:51:56;10.83;;;8.67;;
15055;SDS011;7626;42.674;23.284;2023-05-18T08:54:26;11.10;;;9.50;;
15055;SDS011;7626;42.674;23.284;2023-05-18T08:56:53;11.47;;;9.40;;
15055;SDS011;7626;42.674;23.284;2023-05-18T08:59:22;12.97;;;9.50;;
15055;SDS011;7626;42.674;23.284;2023-05-18T09:01:50;10.67;;;9.63;;
15055;SDS011;7626;42.674;23.284;2023-05-18T09:04:19;12.43;;;10.20;;
15055;SDS011;7626;42.674;23.284;2023-05-18T09:06:46;12.33;;;9.57;;
15055;SDS011;7626;42.674;23.284;2023-05-18T09:09:15;10.60;;;9.50;;
15055;SDS011;7626;42.674;23.284;2023-05-18T09:11:43;10.87;;;9.80;;
15055;SDS011;7626;42.674;23.284;2023-05-18T09:14:12;10.87;;;9.73;;
15055;SDS011;7626;42.674;23.284;2023-05-18T09:16:39;12.80;;;9.47;;
15055;SDS011;7626;42.674;23.284;2023-05-18T09:19:06;10.70;;;9.60;;
15055;SDS011;7626;42.674;23.284;2023-05-18T09:21:34;11.20;;;10.10;;
15055;SDS011;7626;42.674;23.284;2023-05-18T09:24:00;11.33;;;9.73;;
15055;SDS011;7626;42.674;23.284;2023-05-18T09:26:28;11.13;;;9.90;;
15055;SDS011;7626;42.674;23.284;2023-05-18T09:28:55;10.77;;;9.73;;
15055;SDS011;7626;42.674;23.284;2023-05-18T09:31:23;10.70;;;9.50;;
15055;SDS011;7626;42.674;23.284;2023-05-18T09:33:51;9.70;;;8.70;;
15055;SDS011;7626;42.674;23.284;2023-05-18T09:36:22;10.13;;;9.13;;
15055;SDS011;7626;42.674;23.284;2023-05-18T09:38:50;11.87;;;8.77;;
15055;SDS011;7626;42.674;23.284;2023-05-18T09:41:17;9.27;;;8.47;;
15055;SDS011;7626;42.674;23.284;2023-05-18T09:43:46;11.23;;;10.03;;
15055;SDS011;7626;42.674;23.284;2023-05-18T09:46:14;13.27;;;11.87;;
15055;SDS011;7626;42.674;23.284;2023-05-18T09:48:42;14.50;;;12.97;;
15055;SDS011;7626;42.674;23.284;2023-05-18T09:51:11;13.20;;;10.03;;
15055;SDS011;7626;42.674;23.284;2023-05-18T09:53:40;11.63;;;10.20;;
15055;SDS011;7626;42.674;23.284;2023-05-18T09:56:08;11.77;;;9.90;;
15055;SDS011;7626;42.674;23.284;2023-05-18T09:58:39;9.77;;;8.87;;
15055;SDS011;7626;42.674;23.284;2023-05-18T10:01:07;9.43;;;8.53;;
15055;SDS011;7626;42.674;23.284;2023-05-18T10:03:34;12.97;;;11.60;;
15055;SDS011;7626;42.674;23.284;2023-05-18T10:06:02;15.30;;;13.70;;
15055;SDS011;7626;42.674;23.284;2023-05-18T10:08:31;11.47;;;10.33;;
15055;SDS011;7626;42.674;23.284;2023-05-18T10:10:58;10.43;;;9.37;;
15055;SDS011;7626;42.674;23.284;2023-05-18T10:13:25;8.93;;;8.13;;
15055;SDS011;7626;42.674;23.284;2023-05-18T10:15:56;9.23;;;8.10;;
15055;SDS011;7626;42.674;23.284;2023-05-18T10:18:25;8.97;;;8.17;;
15055;SDS011;7626;42.674;23.284;2023-05-18T10:20:54;14.10;;;12.67;;
15055;SDS011;7626;42.674;23.284;2023-05-18T10:23:21;10.17;;;9.27;;
15055;SDS011;7626;42.674;23.284;2023-05-18T10:25:50;9.93;;;8.93;;
15055;SDS011;7626;42.674;23.284;2023-05-18T10:28:18;10.57;;;8.33;;
15055;SDS011;7626;42.674;23.284;2023-05-18T10:30:50;8.97;;;7.63;;
15055;SDS011;7626;42.674;23.284;2023-05-18T10:33:19;9.57;;;8.10;;
15055;SDS011;7626;42.674;23.284;2023-05-18T10:35:49;9.37;;;8.37;;
15055;SDS011;7626;42.674;23.284;2023-05-18T10:38:20;10.43;;;8.00;;
15055;SDS011;7626;42.674;23.284;2023-05-18T10:40:48;10.07;;;8.03;;
15055;SDS011;7626;42.674;23.284;2023-05-18T10:43:17;8.27;;;7.33;;
15055;SDS011;7626;42.674;23.284;2023-05-18T10:45:46;10.20;;;8.17;;
15055;SDS011;7626;42.674;23.284;2023-05-18T10:48:15;8.30;;;7.47;;
15055;SDS011;7626;42.674;23.284;2023-05-18T10:50:44;8.57;;;7.67;;
15055;SDS011;7626;42.674;23.284;2023-05-18T10:53:14;11.13;;;7.97;;
15055;SDS011;7626;42.674;23.284;2023-05-18T10:55:43;9.13;;;8.00;;
15055;SDS011;7626;42.674;23.284;2023-05-18T10:58:10;8.83;;;8.03;;
15055;SDS011;7626;42.674;23.284;2023-05-18T11:00:40;8.50;;;7.70;;
15055;SDS011;7626;42.674;23.284;2023-05-18T11:03:10;8.93;;;7.90;;
15055;SDS011;7626;42.674;23.284;2023-05-18T11:05:38;9.77;;;7.83;;
15055;SDS011;7626;42.674;23.284;2023-05-18T11:08:06;8.93;;;8.10;;
15055;SDS011;7626;42.674;23.284;2023-05-18T11:10:37;8.47;;;7.70;;
15055;SDS011;7626;42.674;23.284;2023-05-18T11:13:06;10.00;;;7.90;;
15055;SDS011;7626;42.674;23.284;2023-05-18T11:18:38;8.83;;;7.83;;
15055;SDS011;7626;42.674;23.284;2023-05-18T11:21:20;9.17;;;8.17;;
15055;SDS011;7626;42.674;23.284;2023-05-18T11:27:11;8.40;;;7.60;;
15055;SDS011;7626;42.674;23.284;2023-05-18T11:29:40;8.47;;;7.57;;
15055;SDS011;7626;42.674;23.284;2023-05-18T11:32:20;9.93;;;8.93;;
15055;SDS011;7626;42.674;23.284;2023-05-18T11:34:49;9.50;;;8.13;;
15055;SDS011;7626;42.674;23.284;2023-05-18T11:37:16;9.13;;;8.00;;
15055;SDS011;7626;42.674;23.284;2023-05-18T11:40:03;8.30;;;7.30;;
15055;SDS011;7626;42.674;23.284;2023-05-18T11:42:40;7.33;;;6.63;;
15055;SDS011;7626;42.674;23.284;2023-05-18T11:45:07;8.00;;;7.27;;
15055;SDS011;7626;42.674;23.284;2023-05-18T11:47:35;7.87;;;6.67;;
15055;SDS011;7626;42.674;23.284;2023-05-18T11:50:05;7.43;;;6.60;;
15055;SDS011;7626;42.674;23.284;2023-05-18T11:52:33;7.57;;;6.50;;
15055;SDS011;7626;42.674;23.284;2023-05-18T11:55:12;6.53;;;5.93;;
15055;SDS011;7626;42.674;23.284;2023-05-18T11:57:41;6.17;;;5.57;;
15055;SDS011;7626;42.674;23.284;2023-05-18T12:00:10;6.67;;;5.90;;
15055;SDS011;7626;42.674;23.284;2023-05-18T12:02:37;5.60;;;5.10;;
15055;SDS011;7626;42.674;23.284;2023-05-18T12:05:08;6.33;;;5.23;;
15055;SDS011;7626;42.674;23.284;2023-05-18T12:07:35;4.97;;;4.57;;
15055;SDS011;7626;42.674;23.284;2023-05-18T12:10:03;5.00;;;4.60;;
15055;SDS011;7626;42.674;23.284;2023-05-18T12:12:32;4.93;;;4.43;;
15055;SDS011;7626;42.674;23.284;2023-05-18T12:15:02;5.10;;;4.50;;
15055;SDS011;7626;42.674;23.284;2023-05-18T12:17:37;6.20;;;5.60;;
15055;SDS011;7626;42.674;23.284;2023-05-18T12:20:06;6.20;;;5.10;;
15055;SDS011;7626;42.674;23.284;2023-05-18T12:22:33;4.97;;;4.37;;
15055;SDS011;7626;42.674;23.284;2023-05-18T12:25:01;4.23;;;3.83;;
15055;SDS011;7626;42.674;23.284;2023-05-18T12:27:28;4.90;;;4.17;;
15055;SDS011;7626;42.674;23.284;2023-05-18T12:29:55;6.10;;;4.47;;
15055;SDS011;7626;42.674;23.284;2023-05-18T12:32:23;5.00;;;4.10;;
15055;SDS011;7626;42.674;23.284;2023-05-18T12:34:50;7.27;;;4.43;;
15055;SDS011;7626;42.674;23.284;2023-05-18T12:37:17;6.87;;;4.30;;
15055;SDS011;7626;42.674;23.284;2023-05-18T12:39:50;7.13;;;4.57;;
15055;SDS011;7626;42.674;23.284;2023-05-18T12:42:17;5.27;;;4.10;;
15055;SDS011;7626;42.674;23.284;2023-05-18T12:44:44;5.27;;;4.77;;
15055;SDS011;7626;42.674;23.284;2023-05-18T12:47:12;4.50;;;4.10;;
15055;SDS011;7626;42.674;23.284;2023-05-18T12:49:42;4.33;;;3.93;;
15055;SDS011;7626;42.674;23.284;2023-05-18T12:52:14;5.20;;;4.20;;
15055;SDS011;7626;42.674;23.284;2023-05-18T12:54:47;6.20;;;4.60;;
15055;SDS011;7626;42.674;23.284;2023-05-18T12:57:19;5.07;;;4.63;;
15055;SDS011;7626;42.674;23.284;2023-05-18T12:59:49;5.20;;;4.33;;
15055;SDS011;7626;42.674;23.284;2023-05-18T13:02:30;4.57;;;4.17;;
15055;SDS011;7626;42.674;23.284;2023-05-18T13:05:06;5.07;;;4.57;;
15055;SDS011;7626;42.674;23.284;2023-05-18T13:07:35;5.10;;;4.60;;
15055;SDS011;7626;42.674;23.284;2023-05-18T13:10:04;5.77;;;5.03;;
15055;SDS011;7626;42.674;23.284;2023-05-18T13:12:35;5.87;;;5.03;;
15055;SDS011;7626;42.674;23.284;2023-05-18T13:15:08;6.17;;;4.87;;
15055;SDS011;7626;42.674;23.284;2023-05-18T13:17:38;5.43;;;4.93;;
15055;SDS011;7626;42.674;23.284;2023-05-18T13:20:15;6.30;;;5.07;;
15055;SDS011;7626;42.674;23.284;2023-05-18T13:22:42;5.27;;;4.77;;
15055;SDS011;7626;42.674;23.284;2023-05-18T13:25:09;5.70;;;5.23;;
15055;SDS011;7626;42.674;23.284;2023-05-18T13:27:37;6.10;;;5.27;;
15055;SDS011;7626;42.674;23.284;2023-05-18T13:30:04;5.67;;;5.10;;
15055;SDS011;7626;42.674;23.284;2023-05-18T13:32:32;5.70;;;5.20;;
15055;SDS011;7626;42.674;23.284;2023-05-18T13:34:59;5.63;;;5.13;;
15055;SDS011;7626;42.674;23.284;2023-05-18T13:37:27;5.90;;;5.30;;
15055;SDS011;7626;42.674;23.284;2023-05-18T13:39:53;5.70;;;5.10;;
15055;SDS011;7626;42.674;23.284;2023-05-18T13:42:20;5.70;;;5.20;;
15055;SDS011;7626;42.674;23.284;2023-05-18T13:44:47;5.60;;;5.03;;
15055;SDS011;7626;42.674;23.284;2023-05-18T13:47:14;5.53;;;5.03;;
15055;SDS011;7626;42.674;23.284;2023-05-18T13:49:40;5.73;;;5.10;;
15055;SDS011;7626;42.674;23.284;2023-05-18T13:52:07;6.30;;;5.43;;
15055;SDS011;7626;42.674;23.284;2023-05-18T13:54:35;5.73;;;5.10;;
15055;SDS011;7626;42.674;23.284;2023-05-18T13:57:02;6.90;;;5.80;;
15055;SDS011;7626;42.674;23.284;2023-05-18T13:59:29;6.33;;;5.80;;
15055;SDS011;7626;42.674;23.284;2023-05-18T14:01:58;6.83;;;6.13;;
15055;SDS011;7626;42.674;23.284;2023-05-18T14:04:25;6.80;;;6.20;;
15055;SDS011;7626;42.674;23.284;2023-05-18T14:06:52;6.60;;;6.00;;
15055;SDS011;7626;42.674;23.284;2023-05-18T14:09:20;7.30;;;6.57;;
15055;SDS011;7626;42.674;23.284;2023-05-18T14:11:48;6.43;;;5.83;;
15055;SDS011;7626;42.674;23.284;2023-05-18T14:14:15;6.20;;;5.70;;
15055;SDS011;7626;42.674;23.284;2023-05-18T14:16:41;6.40;;;5.80;;
15055;SDS011;7626;42.674;23.284;2023-05-18T14:19:08;6.10;;;5.50;;
15055;SDS011;7626;42.674;23.284;2023-05-18T14:21:35;7.23;;;5.97;;
15055;SDS011;7626;42.674;23.284;2023-05-18T14:24:02;7.17;;;6.20;;
15055;SDS011;7626;42.674;23.284;2023-05-18T14:26:31;6.30;;;5.70;;
15055;SDS011;7626;42.674;23.284;2023-05-18T14:28:59;7.93;;;6.43;;
15055;SDS011;7626;42.674;23.284;2023-05-18T14:31:26;6.97;;;6.30;;
15055;SDS011;7626;42.674;23.284;2023-05-18T14:33:53;6.47;;;5.87;;
15055;SDS011;7626;42.674;23.284;2023-05-18T14:36:20;7.20;;;6.50;;
15055;SDS011;7626;42.674;23.284;2023-05-18T14:38:46;7.20;;;6.53;;
15055;SDS011;7626;42.674;23.284;2023-05-18T14:41:13;7.30;;;6.60;;
15055;SDS011;7626;42.674;23.284;2023-05-18T14:43:40;6.67;;;6.07;;
15055;SDS011;7626;42.674;23.284;2023-05-18T14:46:08;7.07;;;6.47;;
15055;SDS011;7626;42.674;23.284;2023-05-18T14:48:35;8.17;;;6.50;;
15055;SDS011;7626;42.674;23.284;2023-05-18T14:51:02;8.07;;;6.23;;
15055;SDS011;7626;42.674;23.284;2023-05-18T14:53:29;7.17;;;6.50;;
15055;SDS011;7626;42.674;23.284;2023-05-18T14:55:55;6.77;;;6.13;;
15055;SDS011;7626;42.674;23.284;2023-05-18T14:58:23;6.57;;;5.87;;
15055;SDS011;7626;42.674;23.284;2023-05-18T15:00:50;6.87;;;6.13;;
15055;SDS011;7626;42.674;23.284;2023-05-18T15:03:18;7.87;;;6.93;;